Independence, Ca., Owens Valley School Weather observations

 Day   Time    Ave.   Ave.  Ave.  Vector  Max.   Total    Solar  
  of    of     Air    Rel.  Wind   Wind   Wind  Precip.   Rad.   
Year   Day     Temp.  Hum.  Speed  Dir.   Gust                   
2014   (PST)    F      %     mph   deg.    mph    in.     W/m2  
----------------------------------------------------------------
 241   11:50   95.7     7    8.8   138    19.3    0.00     884
 241   12:00   96.1     7    9.6   146    18.1    0.00     820
 241   12:10   96.5     7    9.2   147    20.5    0.00     870
 241   12:20   96.7     7   10.1   147    15.7    0.00     943
 241   12:30   96.5     8   10.0   128    19.9    0.00     828
 241   12:40   96.9     7    9.1   139    15.8    0.00     785
 241   12:50   97.0     7    8.8   146    17.2    0.00     574
 241   13:00   95.5     8    9.6   150    19.0    0.00     377
 241   13:10   95.2     8    9.9   143    16.6    0.00     414
 241   13:20   96.6     8    9.2   149    17.2    0.00     735
 241   13:30   98.5     7    8.7   143    17.5    0.00     795
 241   13:40   98.3     7    9.1   146    17.8    0.00     748
 241   13:50   98.2     7    9.5   144    17.9    0.00     717
 241   14:00   99.0     7    7.6   140    15.0    0.00     663
 241   14:10   97.6     7    9.1   141    17.2    0.00     411
 241   14:20   96.4     7    9.0   142    16.7    0.00     336
 241   14:30   97.1     7    9.8   144    19.3    0.00     465
 241   14:40   96.0     7   10.4   149    17.4    0.00     296
 241   14:50   96.1     7    8.9   142    16.3    0.00     366
 241   15:00   97.2     7    9.6   146    17.2    0.00     450
 241   15:10   97.1     7   10.2   145    18.8    0.00     476
 241   15:20   97.5     7   10.8   142    18.3    0.00     577
 241   15:30   98.1     7    9.6   142    18.8    0.00     503
 241   15:40   97.4     7   10.2   150    17.0    0.00     427
 241   15:50   96.9     7    9.9   145    18.5    0.00     359
 241   16:00   96.5     7   11.1   147    18.6    0.00     361
 241   16:10   96.0     7   11.4   146    19.9    0.00     258
 241   16:20   95.2     7   10.8   146    25.4    0.00     213
 241   16:30   95.1     7    9.8   141    18.7    0.00     190
 241   16:40   94.2     7   10.4   147    16.9    0.00     101
 241   16:50   92.9     7    8.8   145    14.8    0.00      60
 241   17:00   92.0     8    8.4   145    14.4    0.00      62
 241   17:10   91.4     8    9.6   147    16.1    0.00      78
 241   17:20   91.3     8    8.9   148    14.6    0.00      58
 241   17:30   90.9     8    8.0   149    12.2    0.00      48
 241   17:40   90.6     8    6.0   152     9.8    0.00      34
 241   17:50   89.9     8    2.6   163     5.7    0.00      14
 241   18:00   88.6     8    2.5   160     5.4    0.00       5
 241   18:10   87.6     8    2.4   174     5.3    0.00       2
 241   18:20   87.0     8    2.9   194     6.1    0.00       0
 241   18:30   85.6     9    3.5   197     6.9    0.00       0
 241   18:40   85.6     9    3.6   188     7.5    0.00       0
 241   18:50   86.5     9    3.4   185     8.0    0.00       0
 241   19:00   86.5     9    2.9   190    10.1    0.00       0
 241   19:10   85.9     9    2.8   202     7.1    0.00       0
 241   19:20   85.4     9    2.8   192     5.3    0.00       0
 241   19:30   84.5    10    3.6   207     6.0    0.00       0
 241   19:40   85.2    10    3.6   200     6.8    0.00       0
 241   19:50   85.3    10    2.5   187     5.7    0.00       0
 241   20:00   85.6    10    3.4   175     7.1    0.00       0
 241   20:10   85.6    10    3.2   172     7.3    0.00       0
 241   20:20   85.0    10    2.9   152     5.9    0.00       0
 241   20:30   82.5    12    4.5   112     7.6    0.00       0
 241   20:40   82.2    11    2.9   147     5.7    0.00       0
 241   20:50   81.8    11    1.8   166     3.8    0.00       0
 241   21:00   80.3    12    0.1   192     1.7    0.00       0
 241   21:10   78.5    13    2.1   217     3.5    0.00       0
 241   21:20   77.9    13    1.0   200     2.5    0.00       0
 241   21:30   76.3    14    0.9   193     2.0    0.00       0
 241   21:40   75.4    14    0.0   154     0.8    0.00       0
 241   21:50   75.3    15    0.5   256     2.1    0.00       0
 241   22:00   75.6    15    1.3   254     2.2    0.00       0
 241   22:10   75.7    15    1.4   241     2.4    0.00       0
 241   22:20   76.7    14    0.0   247     1.4    0.00       0
 241   22:30   77.3    14    0.9   249     4.3    0.00       0
 241   22:40   76.2    15    2.8   245     4.1    0.00       0
 241   22:50   76.0    16    0.5   186     2.4    0.00       0
 241   23:00   75.2    17    1.6   254     2.9    0.00       0
 241   23:10   75.2    16    0.8   268     3.0    0.00       0
 241   23:20   74.1    18    2.9   331     7.4    0.00       0
 241   23:30   74.1    18    2.6   301     5.1    0.00       0
 241   23:40   74.3    18    0.7   292     2.9    0.00       0
 241   23:50   73.8    17    0.8   259     2.5    0.00       0
 242    0:00   74.2    17    1.8   263     3.8    0.00       0
 242    0:10   74.0    17    1.8   263     4.3    0.00       0
 242    0:20   74.0    17    1.0   264     3.1    0.00       0
 242    0:30   74.2    17    1.1   279     3.8    0.00       0
 242    0:40   73.7    17    0.6   246     2.2    0.00       0
 242    0:50   73.3    17    0.6   243     2.3    0.00       0
 242    1:00   72.4    18    0.2   274     1.6    0.00       0
 242    1:10   72.6    17    0.0     0     0.0    0.00       0
 242    1:20   72.9    17    0.0   267     1.1    0.00       0
 242    1:30   72.4    18    0.7   262     2.1    0.00       0
 242    1:40   72.5    17    0.8   219     2.0    0.00       0
 242    1:50   72.4    17    1.2   204     2.7    0.00       0
 242    2:00   71.8    18    2.1   217     4.5    0.00       0
 242    2:10   72.4    17    1.0   242     2.8    0.00       0
 242    2:20   72.1    18    1.8   221     5.0    0.00       0
 242    2:30   72.9    17    1.9   242     3.6    0.00       0
 242    2:40   72.1    18    0.2   239     2.3    0.00       0
 242    2:50   70.6    21    0.5    40     2.0    0.00       0
 242    3:00   68.8    24    0.9   258     2.8    0.00       0
 242    3:10   68.6    24    1.4   276     3.7    0.00       0
 242    3:20   68.5    23    1.0   248     3.0    0.00       0
 242    3:30   69.1    20    1.7   256     3.8    0.00       0
 242    3:40   72.1    16    4.2   312     8.7    0.00       0
 242    3:50   72.7    17    4.0   316     6.8    0.00       0
 242    4:00   71.3    18    2.7   313     4.9    0.00       0
 242    4:10   72.0    17    2.8   303     5.2    0.00       0
 242    4:20   72.9    17    0.9   264     3.1    0.00       0
 242    4:30   71.7    18    0.9     0     2.8    0.00       0
 242    4:40   70.6    20    1.2    61     3.5    0.00       0
 242    4:50   69.0    22    0.0    50     1.1    0.00       0
 242    5:00   68.3    22    0.2   323     1.5    0.00       1
 242    5:10   68.1    23    1.9   261     5.4    0.00       6
 242    5:20   68.4    23    1.1   255     4.9    0.00      15
 242    5:30   68.5    24    0.7   239     2.8    0.00      24
 242    5:40   70.3    21    1.0   296     3.2    0.00      34
 242    5:50   71.1    21    0.1   277     1.5    0.00      43
 242    6:00   70.4    25    1.4    62     3.5    0.00      55
 242    6:10   68.8    24    2.0   163     3.3    0.00      67
 242    6:20   69.9    22    0.1   256     1.4    0.00      78
 242    6:30   70.2    25    1.0   232     2.4    0.00      93
 242    6:40   71.5    22    1.1   290     2.3    0.00     104
 242    6:50   71.3    28    1.1    61     2.0    0.00     110
 242    7:00   71.1    26    0.4   123     2.6    0.00     121
 242    7:10   71.0    27    2.0   138     3.8    0.00     133
 242    7:20   71.1    29    0.9    64     2.3    0.00     145
 242    7:30   71.5    26    0.6   196     2.2    0.00     143
 242    7:40   72.4    24    1.7   312     4.1    0.00     131
 242    7:50   72.8    24    2.0   293     4.1    0.00     127
 242    8:00   73.8    21    1.4   239     4.3    0.00     132
 242    8:10   75.0    25    0.0   354     0.5    0.00     148
 242    8:20   75.5    21    1.4   291     4.0    0.00     173
 242    8:30   76.9    18    0.8   288     3.8    0.00     198
 242    8:40   79.1    17    0.0   256     0.5    0.00     225
 242    8:50   79.6    18    0.6   296     2.4    0.00     265
 242    9:00   80.2    16    1.2   289     3.5    0.00     293
 242    9:10   80.5    16    0.8   289     2.8    0.00     285
 242    9:20   81.4    16    1.8   296     3.9    0.00     290
 242    9:30   82.1    14    2.1   306     3.8    0.00     299
 242    9:40   84.6    17    0.8    39     2.6    0.00     352
 242    9:50   86.6    15    0.2    50     1.4    0.00     403
 242   10:00   87.4    14    1.4    10     3.0    0.00     442
 242   10:10   87.6    12    2.1   346     4.3    0.00     419
 242   10:20   88.1    12    1.4   263     3.0    0.00     421
 242   10:30   89.9    11    0.9   309     3.8    0.00     555
 242   10:40   92.0    11    1.3   329     3.8    0.00     643
 242   10:50   92.4    12    2.5    31     5.1    0.00     676
 242   11:00   92.0    12    3.6    38     6.3    0.00     726
 242   11:10   93.6    12    1.7    72     4.4    0.00     725
 242   11:20   94.4    12    2.1     7     5.0    0.00     749
 242   11:30   93.5    12    2.5    46     4.9    0.00     540
 242   11:40   93.3    12    1.5    70     3.4    0.00     618

Return to Independence, Ca. graphs page.


Western Regional Climate Center,wrcc@dri.edu